*** The Vicarage Weather Feed ***

Nearby METAR Reports


 

CYOO - Oshawa, Municipal Airport, Ontario, Canada
Distance from station: NW 3.2km
Updated: 20/05/2019 20:37
Overcast
Overcast
 Wind from WNW
Wind: WNW 20 km/h, Gust: 30 km/h
Temperature: 9°C
Wind Chill: 6°C
Dew Point: 4°C
Humidity: 71%
Barometer: 1013.9 hPa
Clouds: Overcast
Visibility: 14 km
Cloud details: Mostly cloudy 732 m
Overcast 1463 m
2019/05/21 00:37 CYOO 210037Z AUTO 29011G16KT 9SM BKN024 OVC048 09/04 A2994 RMK SLP142
CYKZ - Toronto, Buttonville, Municipal Airport, Ontario, Canada
Distance from station: W 39.75km
Updated: 03/01/2019 04:00
NOT Current
Partly cloudy
Partly cloudy
 Wind from WSW
Wind: WSW 7 km/h
Temperature: -3°C
Wind Chill: -6°C
Dew Point: -5°C
Humidity: 86%
Barometer: 1010.8 hPa
Clouds: Partly cloudy
Visibility: 24 km
Cloud details: Partly cloudy 1219 m
2019/01/03 09:00 CYKZ 030900Z 25004KT 15SM SCT040 M03/M05 A2985 RMK SC3 LAST STFD OBS FAREWELL SLP118
 
CXTO - Toronto City, Buttonville, Ontario, Canada
Distance from station: WSW 49km
Updated: 20/05/2019 20:00

 
Temperature: 11°C
Dew Point: 3°C
Humidity: 58%
2019/05/21 00:00 CXTO 210000Z AUTO 11/03 RMK AO1 SLP140 T01080026 53026
CYTZ - Toronto City, Island Airport, Ontario, Canada
Distance from station: SW 51.7km
Updated: 20/05/2019 20:00
Overcast
Overcast
 Wind from WNW
Wind: WNW 24 km/h, Gust: 41 km/h
Temperature: 11°C
Dew Point: 4°C
Humidity: 62%
Barometer: 1013.9 hPa
Clouds: Overcast
Visibility: 14 km
Cloud details: Mostly cloudy 1097 m
Mostly cloudy 1341 m
Overcast 1829 m
2019/05/21 00:00 CYTZ 210000Z AUTO 30013G22KT 9SM BKN036 BKN044 OVC060 11/04 A2994 RMK SLP142
 
CYPQ - Toronto, Peterborough Airport, Ontario, Canada
Distance from station: NE 54km
Updated: 20/05/2019 20:00
Overcast
Overcast
 Wind from W
Wind: W 33 km/h, Gust: 43 km/h
Temperature: 8°C
Wind Chill: 3°C
Dew Point: 5°C
Humidity: 82%
Barometer: 1012.2 hPa
Clouds: Overcast
Visibility: 14 km
Cloud details: Overcast 610 m
2019/05/21 00:00 CYPQ 210000Z AUTO 27018G23KT 9SM OVC020 08/05 A2989 RMK PRESRR SLP126
CWNC - Cobourg, (mars), Ontario, Canada
Distance from station: E 57km
Updated: 20/05/2019 20:00

 Wind from NW
Wind: NW 17 km/h, Gust: 30 km/h
Temperature: 11°C
Dew Point: 4°C
Humidity: 62%
2019/05/21 00:00 CWNC 210000Z AUTO 31009G16KT 11/04 RMK AO1 PK WND 28021/2332 SLP121 T01060035 51036
 
CYYZ - Toronto, Lester Pearson Airport, Ontario, Canada
Distance from station: W 65.5km
Updated: 20/05/2019 20:00
Mostly cloudy
Mostly cloudy
 Wind from NW
Wind: NW 37 km/h
Temperature: 10°C
Wind Chill: 6°C
Dew Point: 3°C
Humidity: 62%
Barometer: 1014.2 hPa
Clouds: Mostly cloudy
Visibility: 24 km
Cloud details: Mostly cloudy 914 m
2019/05/21 00:00 CYYZ 210000Z 31020KT 15SM BKN030 10/03 A2995 RMK SC7 SLP145
CWGL - Lagoon City, Ontario, Canada
Distance from station: NNW 74km
Updated: 20/05/2019 20:00

 Wind from NW
Wind: NW 24 km/h, Gust: 39 km/h
Temperature: 7°C
Wind Chill: 3°C
Dew Point: 4°C
Humidity: 81%
2019/05/21 00:00 CWGL 210000Z AUTO 31013G21KT 07/04 RMK AO1 PK WND 31024/2301 SLP134 T00730035 53028
 
CWWZ - Port Weller Airport, Ontario, Canada
Distance from station: SSW 77km
Updated: 20/05/2019 20:00

 Wind from WNW
Wind: WNW 28 km/h
Temperature: 9°C
Wind Chill: 6°C
Dew Point: 7°C
Humidity: 87%
2019/05/21 00:00 CWWZ 210000Z AUTO 29015KT 09/07 RMK AO1 PK WND 28018/2319 SLP146 T00940070 53028
CYSN - St.Catharines Niagara Airport, Ontario, Canada
Distance from station: SSW 81km
Updated: 20/05/2019 20:00
Mostly cloudy
Mostly cloudy
 Wind from WNW
Wind: WNW 28 km/h
Temperature: 11°C
Dew Point: 6°C
Humidity: 72%
Barometer: 1014.2 hPa
Clouds: Mostly cloudy
Visibility: 24 km
Cloud details: Mostly cloudy 884 m
2019/05/21 00:00 CYSN 210000Z 29015KT 15SM BKN029 11/06 A2995 RMK SC7 SLP143
This data is offered only as a general guide to local weather conditions. It should not be relied upon in lieu of officially disseminated weather information for determining possible risk to persons or property. This site, including all information contained therein, is made available as is without warranties of any kind, either express or implied. The Vicarage Weather Feed© includes links to other sites for user convenience only. The content of any linked third-party site is not controlled by The Vicarage Weather Feed©. Access to any third-party website through The Vicarage Weather Feed©, regardless of whether or not the third-party site is a linked site, is entirely at the users own risk. Externally sourced content or material is excluded from The Vicarage Weather Feed© copyright and is the copyright and property of the respective provider. Skywarn® and the Skywarn® logo are registered trademarks of the National Oceanic and Atmospheric Administration, used with permission.